sensor_id;sensor_type;location;lat;lon;timestamp;P1;durP1;ratioP1;P2;durP2;ratioP2
54460;SDS011;69977;49.414;11.010;2024-01-06T00:01:51;7.40;;;6.70;;
54460;SDS011;69977;49.414;11.010;2024-01-06T00:04:17;11.23;;;8.13;;
54460;SDS011;69977;49.414;11.010;2024-01-06T00:06:43;10.80;;;6.93;;
54460;SDS011;69977;49.414;11.010;2024-01-06T00:09:09;8.97;;;7.23;;
54460;SDS011;69977;49.414;11.010;2024-01-06T00:11:35;11.60;;;8.33;;
54460;SDS011;69977;49.414;11.010;2024-01-06T00:14:01;8.63;;;7.70;;
54460;SDS011;69977;49.414;11.010;2024-01-06T00:16:26;9.90;;;7.97;;
54460;SDS011;69977;49.414;11.010;2024-01-06T00:18:52;10.30;;;9.20;;
54460;SDS011;69977;49.414;11.010;2024-01-06T00:21:18;11.87;;;8.60;;
54460;SDS011;69977;49.414;11.010;2024-01-06T00:23:44;9.27;;;8.27;;
54460;SDS011;69977;49.414;11.010;2024-01-06T00:26:10;9.83;;;8.37;;
54460;SDS011;69977;49.414;11.010;2024-01-06T00:28:36;13.10;;;8.70;;
54460;SDS011;69977;49.414;11.010;2024-01-06T00:31:02;9.87;;;8.10;;
54460;SDS011;69977;49.414;11.010;2024-01-06T00:33:29;13.60;;;9.17;;
54460;SDS011;69977;49.414;11.010;2024-01-06T00:35:55;12.63;;;8.70;;
54460;SDS011;69977;49.414;11.010;2024-01-06T00:38:21;10.10;;;8.27;;
54460;SDS011;69977;49.414;11.010;2024-01-06T00:40:47;8.77;;;7.90;;
54460;SDS011;69977;49.414;11.010;2024-01-06T00:43:13;10.60;;;8.23;;
54460;SDS011;69977;49.414;11.010;2024-01-06T00:45:39;11.00;;;9.03;;
54460;SDS011;69977;49.414;11.010;2024-01-06T00:48:05;10.40;;;8.50;;
54460;SDS011;69977;49.414;11.010;2024-01-06T00:50:31;10.80;;;8.23;;
54460;SDS011;69977;49.414;11.010;2024-01-06T00:52:57;11.57;;;8.23;;
54460;SDS011;69977;49.414;11.010;2024-01-06T00:55:22;9.73;;;8.03;;
54460;SDS011;69977;49.414;11.010;2024-01-06T00:57:50;8.63;;;7.60;;
54460;SDS011;69977;49.414;11.010;2024-01-06T01:00:16;8.73;;;7.33;;
54460;SDS011;69977;49.414;11.010;2024-01-06T01:02:42;9.00;;;7.27;;
54460;SDS011;69977;49.414;11.010;2024-01-06T01:05:08;9.30;;;7.13;;
54460;SDS011;69977;49.414;11.010;2024-01-06T01:07:34;8.00;;;6.70;;
54460;SDS011;69977;49.414;11.010;2024-01-06T01:10:00;8.23;;;7.00;;
54460;SDS011;69977;49.414;11.010;2024-01-06T01:12:26;8.53;;;6.53;;
54460;SDS011;69977;49.414;11.010;2024-01-06T01:14:52;9.00;;;7.10;;
54460;SDS011;69977;49.414;11.010;2024-01-06T01:17:18;7.07;;;5.80;;
54460;SDS011;69977;49.414;11.010;2024-01-06T01:19:44;10.40;;;6.50;;
54460;SDS011;69977;49.414;11.010;2024-01-06T01:22:10;8.50;;;6.37;;
54460;SDS011;69977;49.414;11.010;2024-01-06T01:24:36;11.20;;;6.80;;
54460;SDS011;69977;49.414;11.010;2024-01-06T01:27:02;8.40;;;5.73;;
54460;SDS011;69977;49.414;11.010;2024-01-06T01:29:28;7.33;;;5.70;;
54460;SDS011;69977;49.414;11.010;2024-01-06T01:31:54;6.93;;;5.97;;
54460;SDS011;69977;49.414;11.010;2024-01-06T01:34:20;9.00;;;6.43;;
54460;SDS011;69977;49.414;11.010;2024-01-06T01:36:46;6.80;;;6.10;;
54460;SDS011;69977;49.414;11.010;2024-01-06T01:39:12;6.63;;;5.73;;
54460;SDS011;69977;49.414;11.010;2024-01-06T01:41:39;6.40;;;5.80;;
54460;SDS011;69977;49.414;11.010;2024-01-06T01:44:05;5.93;;;5.33;;
54460;SDS011;69977;49.414;11.010;2024-01-06T01:46:31;6.10;;;5.50;;
54460;SDS011;69977;49.414;11.010;2024-01-06T01:48:58;6.73;;;5.33;;
54460;SDS011;69977;49.414;11.010;2024-01-06T01:51:29;8.53;;;6.07;;
54460;SDS011;69977;49.414;11.010;2024-01-06T01:53:57;5.87;;;5.23;;
54460;SDS011;69977;49.414;11.010;2024-01-06T01:56:24;6.97;;;5.43;;
54460;SDS011;69977;49.414;11.010;2024-01-06T01:58:51;7.43;;;5.00;;
54460;SDS011;69977;49.414;11.010;2024-01-06T02:01:18;6.40;;;5.77;;
54460;SDS011;69977;49.414;11.010;2024-01-06T02:03:44;5.80;;;5.20;;
54460;SDS011;69977;49.414;11.010;2024-01-06T02:06:10;8.50;;;5.83;;
54460;SDS011;69977;49.414;11.010;2024-01-06T02:08:37;6.90;;;5.60;;
54460;SDS011;69977;49.414;11.010;2024-01-06T02:11:03;5.57;;;5.00;;
54460;SDS011;69977;49.414;11.010;2024-01-06T02:13:33;5.93;;;5.23;;
54460;SDS011;69977;49.414;11.010;2024-01-06T02:16:03;6.20;;;5.60;;
54460;SDS011;69977;49.414;11.010;2024-01-06T02:18:30;6.70;;;5.60;;
54460;SDS011;69977;49.414;11.010;2024-01-06T02:20:57;6.50;;;4.90;;
54460;SDS011;69977;49.414;11.010;2024-01-06T02:23:25;6.77;;;5.40;;
54460;SDS011;69977;49.414;11.010;2024-01-06T02:25:51;6.47;;;4.80;;
54460;SDS011;69977;49.414;11.010;2024-01-06T02:28:17;5.93;;;4.83;;
54460;SDS011;69977;49.414;11.010;2024-01-06T02:30:43;6.00;;;5.13;;
54460;SDS011;69977;49.414;11.010;2024-01-06T02:33:09;6.13;;;5.20;;
54460;SDS011;69977;49.414;11.010;2024-01-06T02:35:35;5.30;;;4.77;;
54460;SDS011;69977;49.414;11.010;2024-01-06T02:38:01;5.80;;;5.17;;
54460;SDS011;69977;49.414;11.010;2024-01-06T02:40:27;6.53;;;5.20;;
54460;SDS011;69977;49.414;11.010;2024-01-06T02:42:53;5.63;;;4.60;;
54460;SDS011;69977;49.414;11.010;2024-01-06T02:45:19;6.47;;;4.80;;
54460;SDS011;69977;49.414;11.010;2024-01-06T02:47:45;5.03;;;4.63;;
54460;SDS011;69977;49.414;11.010;2024-01-06T02:50:11;8.60;;;5.20;;
54460;SDS011;69977;49.414;11.010;2024-01-06T02:52:37;6.43;;;5.00;;
54460;SDS011;69977;49.414;11.010;2024-01-06T02:55:03;5.03;;;4.60;;
54460;SDS011;69977;49.414;11.010;2024-01-06T02:57:30;10.70;;;5.20;;
54460;SDS011;69977;49.414;11.010;2024-01-06T02:59:56;5.30;;;4.80;;
54460;SDS011;69977;49.414;11.010;2024-01-06T03:02:22;6.07;;;5.47;;
54460;SDS011;69977;49.414;11.010;2024-01-06T03:04:48;6.43;;;5.13;;
54460;SDS011;69977;49.414;11.010;2024-01-06T03:07:14;5.70;;;4.87;;
54460;SDS011;69977;49.414;11.010;2024-01-06T03:09:40;7.37;;;4.57;;
54460;SDS011;69977;49.414;11.010;2024-01-06T03:12:06;5.80;;;4.87;;
54460;SDS011;69977;49.414;11.010;2024-01-06T03:14:36;5.80;;;4.73;;
54460;SDS011;69977;49.414;11.010;2024-01-06T03:17:02;5.20;;;4.70;;
54460;SDS011;69977;49.414;11.010;2024-01-06T03:19:28;7.97;;;4.97;;
54460;SDS011;69977;49.414;11.010;2024-01-06T03:21:54;5.80;;;5.20;;
54460;SDS011;69977;49.414;11.010;2024-01-06T03:24:21;7.43;;;4.90;;
54460;SDS011;69977;49.414;11.010;2024-01-06T03:26:48;5.73;;;5.10;;
54460;SDS011;69977;49.414;11.010;2024-01-06T03:29:14;5.67;;;4.83;;
54460;SDS011;69977;49.414;11.010;2024-01-06T03:31:43;5.47;;;4.60;;
54460;SDS011;69977;49.414;11.010;2024-01-06T03:34:10;5.80;;;4.53;;
54460;SDS011;69977;49.414;11.010;2024-01-06T03:36:39;5.60;;;5.07;;
54460;SDS011;69977;49.414;11.010;2024-01-06T03:39:05;6.73;;;4.47;;
54460;SDS011;69977;49.414;11.010;2024-01-06T03:41:31;6.00;;;5.13;;
54460;SDS011;69977;49.414;11.010;2024-01-06T03:43:57;5.87;;;4.73;;
54460;SDS011;69977;49.414;11.010;2024-01-06T03:46:23;5.80;;;4.63;;
54460;SDS011;69977;49.414;11.010;2024-01-06T03:48:49;7.93;;;4.80;;
54460;SDS011;69977;49.414;11.010;2024-01-06T03:51:15;6.97;;;5.10;;
54460;SDS011;69977;49.414;11.010;2024-01-06T03:53:41;5.83;;;5.30;;
54460;SDS011;69977;49.414;11.010;2024-01-06T03:56:07;5.73;;;4.97;;
54460;SDS011;69977;49.414;11.010;2024-01-06T03:58:33;5.00;;;4.50;;
54460;SDS011;69977;49.414;11.010;2024-01-06T04:01:00;5.57;;;4.97;;
54460;SDS011;69977;49.414;11.010;2024-01-06T04:03:26;5.97;;;4.60;;
54460;SDS011;69977;49.414;11.010;2024-01-06T04:05:52;5.87;;;4.80;;
54460;SDS011;69977;49.414;11.010;2024-01-06T04:08:18;6.83;;;4.87;;
54460;SDS011;69977;49.414;11.010;2024-01-06T04:10:44;5.67;;;4.73;;
54460;SDS011;69977;49.414;11.010;2024-01-06T04:13:10;6.77;;;5.30;;
54460;SDS011;69977;49.414;11.010;2024-01-06T04:15:36;5.30;;;4.80;;
54460;SDS011;69977;49.414;11.010;2024-01-06T04:18:03;5.57;;;4.73;;
54460;SDS011;69977;49.414;11.010;2024-01-06T04:20:30;6.07;;;5.23;;
54460;SDS011;69977;49.414;11.010;2024-01-06T04:22:56;7.00;;;5.80;;
54460;SDS011;69977;49.414;11.010;2024-01-06T04:25:22;7.10;;;5.47;;
54460;SDS011;69977;49.414;11.010;2024-01-06T04:27:48;5.83;;;5.10;;
54460;SDS011;69977;49.414;11.010;2024-01-06T04:30:15;6.00;;;4.77;;
54460;SDS011;69977;49.414;11.010;2024-01-06T04:32:41;5.97;;;5.37;;
54460;SDS011;69977;49.414;11.010;2024-01-06T04:35:07;5.93;;;5.43;;
54460;SDS011;69977;49.414;11.010;2024-01-06T04:37:34;5.10;;;4.47;;
54460;SDS011;69977;49.414;11.010;2024-01-06T04:40:00;5.60;;;5.10;;
54460;SDS011;69977;49.414;11.010;2024-01-06T04:42:26;5.20;;;4.70;;
54460;SDS011;69977;49.414;11.010;2024-01-06T04:44:52;5.87;;;5.13;;
54460;SDS011;69977;49.414;11.010;2024-01-06T04:47:18;6.93;;;4.43;;
54460;SDS011;69977;49.414;11.010;2024-01-06T04:49:44;5.63;;;5.10;;
54460;SDS011;69977;49.414;11.010;2024-01-06T04:52:10;5.27;;;4.73;;
54460;SDS011;69977;49.414;11.010;2024-01-06T04:54:36;5.83;;;5.23;;
54460;SDS011;69977;49.414;11.010;2024-01-06T04:57:02;5.60;;;5.07;;
54460;SDS011;69977;49.414;11.010;2024-01-06T04:59:29;7.73;;;5.40;;
54460;SDS011;69977;49.414;11.010;2024-01-06T05:01:56;5.97;;;4.83;;
54460;SDS011;69977;49.414;11.010;2024-01-06T05:04:23;5.90;;;5.30;;
54460;SDS011;69977;49.414;11.010;2024-01-06T05:06:52;6.03;;;4.37;;
54460;SDS011;69977;49.414;11.010;2024-01-06T05:09:19;5.50;;;4.80;;
54460;SDS011;69977;49.414;11.010;2024-01-06T05:11:45;5.37;;;4.87;;
54460;SDS011;69977;49.414;11.010;2024-01-06T05:14:11;6.63;;;5.60;;
54460;SDS011;69977;49.414;11.010;2024-01-06T05:16:37;7.37;;;5.33;;
54460;SDS011;69977;49.414;11.010;2024-01-06T05:19:03;6.97;;;6.27;;
54460;SDS011;69977;49.414;11.010;2024-01-06T05:21:29;7.20;;;5.23;;
54460;SDS011;69977;49.414;11.010;2024-01-06T05:23:55;8.00;;;5.00;;
54460;SDS011;69977;49.414;11.010;2024-01-06T05:26:21;7.57;;;5.10;;
54460;SDS011;69977;49.414;11.010;2024-01-06T05:28:47;6.47;;;5.20;;
54460;SDS011;69977;49.414;11.010;2024-01-06T05:31:13;6.93;;;5.33;;
54460;SDS011;69977;49.414;11.010;2024-01-06T05:33:39;7.50;;;5.43;;
54460;SDS011;69977;49.414;11.010;2024-01-06T05:36:05;5.93;;;5.23;;
54460;SDS011;69977;49.414;11.010;2024-01-06T05:38:31;6.07;;;5.30;;
54460;SDS011;69977;49.414;11.010;2024-01-06T05:40:57;6.20;;;5.60;;
54460;SDS011;69977;49.414;11.010;2024-01-06T05:43:23;7.67;;;5.17;;
54460;SDS011;69977;49.414;11.010;2024-01-06T05:45:49;6.80;;;5.63;;
54460;SDS011;69977;49.414;11.010;2024-01-06T05:48:15;5.87;;;5.27;;
54460;SDS011;69977;49.414;11.010;2024-01-06T05:50:41;6.63;;;5.50;;
54460;SDS011;69977;49.414;11.010;2024-01-06T05:53:07;6.50;;;5.43;;
54460;SDS011;69977;49.414;11.010;2024-01-06T05:55:33;5.73;;;5.23;;
54460;SDS011;69977;49.414;11.010;2024-01-06T05:57:59;6.60;;;5.10;;
54460;SDS011;69977;49.414;11.010;2024-01-06T06:00:26;8.77;;;5.90;;
54460;SDS011;69977;49.414;11.010;2024-01-06T06:02:52;8.03;;;5.73;;
54460;SDS011;69977;49.414;11.010;2024-01-06T06:05:18;5.87;;;5.27;;
54460;SDS011;69977;49.414;11.010;2024-01-06T06:07:45;6.97;;;5.43;;
54460;SDS011;69977;49.414;11.010;2024-01-06T06:10:11;7.00;;;5.60;;
54460;SDS011;69977;49.414;11.010;2024-01-06T06:12:37;6.50;;;5.90;;
54460;SDS011;69977;49.414;11.010;2024-01-06T06:15:04;7.00;;;5.33;;
54460;SDS011;69977;49.414;11.010;2024-01-06T06:17:31;5.33;;;4.83;;
54460;SDS011;69977;49.414;11.010;2024-01-06T06:19:58;6.70;;;5.53;;
54460;SDS011;69977;49.414;11.010;2024-01-06T06:22:24;5.93;;;5.40;;
54460;SDS011;69977;49.414;11.010;2024-01-06T06:24:59;7.90;;;5.67;;
54460;SDS011;69977;49.414;11.010;2024-01-06T06:27:25;7.03;;;5.50;;
54460;SDS011;69977;49.414;11.010;2024-01-06T06:29:52;9.90;;;6.33;;
54460;SDS011;69977;49.414;11.010;2024-01-06T06:32:18;5.90;;;5.23;;
54460;SDS011;69977;49.414;11.010;2024-01-06T06:34:44;6.73;;;5.70;;
54460;SDS011;69977;49.414;11.010;2024-01-06T06:37:10;6.20;;;5.10;;
54460;SDS011;69977;49.414;11.010;2024-01-06T06:39:36;6.03;;;5.43;;
54460;SDS011;69977;49.414;11.010;2024-01-06T06:42:02;8.17;;;5.70;;
54460;SDS011;69977;49.414;11.010;2024-01-06T06:44:29;7.40;;;5.87;;
54460;SDS011;69977;49.414;11.010;2024-01-06T06:46:55;6.73;;;5.80;;
54460;SDS011;69977;49.414;11.010;2024-01-06T06:49:21;6.33;;;5.40;;
54460;SDS011;69977;49.414;11.010;2024-01-06T06:51:47;6.27;;;5.67;;
54460;SDS011;69977;49.414;11.010;2024-01-06T06:54:14;5.70;;;5.20;;
54460;SDS011;69977;49.414;11.010;2024-01-06T06:56:44;6.00;;;5.13;;
54460;SDS011;69977;49.414;11.010;2024-01-06T06:59:09;6.33;;;5.60;;
54460;SDS011;69977;49.414;11.010;2024-01-06T07:01:36;5.97;;;5.37;;
54460;SDS011;69977;49.414;11.010;2024-01-06T07:04:03;6.50;;;5.90;;
54460;SDS011;69977;49.414;11.010;2024-01-06T07:06:29;8.13;;;5.87;;
54460;SDS011;69977;49.414;11.010;2024-01-06T07:08:56;6.47;;;5.73;;
54460;SDS011;69977;49.414;11.010;2024-01-06T07:11:22;6.63;;;6.00;;
54460;SDS011;69977;49.414;11.010;2024-01-06T07:13:49;7.43;;;6.17;;
54460;SDS011;69977;49.414;11.010;2024-01-06T07:16:15;6.47;;;5.57;;
54460;SDS011;69977;49.414;11.010;2024-01-06T07:18:41;6.17;;;5.57;;
54460;SDS011;69977;49.414;11.010;2024-01-06T07:21:07;7.60;;;6.00;;
54460;SDS011;69977;49.414;11.010;2024-01-06T07:23:33;6.77;;;6.03;;
54460;SDS011;69977;49.414;11.010;2024-01-06T07:25:59;7.17;;;6.27;;
54460;SDS011;69977;49.414;11.010;2024-01-06T07:28:25;5.93;;;5.33;;
54460;SDS011;69977;49.414;11.010;2024-01-06T07:30:52;6.57;;;5.87;;
54460;SDS011;69977;49.414;11.010;2024-01-06T07:33:18;5.50;;;5.00;;
54460;SDS011;69977;49.414;11.010;2024-01-06T07:35:43;8.93;;;6.30;;
54460;SDS011;69977;49.414;11.010;2024-01-06T07:38:11;6.53;;;5.50;;
54460;SDS011;69977;49.414;11.010;2024-01-06T07:40:37;6.50;;;5.40;;
54460;SDS011;69977;49.414;11.010;2024-01-06T07:43:03;7.03;;;5.93;;
54460;SDS011;69977;49.414;11.010;2024-01-06T07:45:29;6.37;;;5.50;;
54460;SDS011;69977;49.414;11.010;2024-01-06T07:47:57;7.07;;;5.47;;
54460;SDS011;69977;49.414;11.010;2024-01-06T07:50:23;5.80;;;5.13;;
54460;SDS011;69977;49.414;11.010;2024-01-06T07:52:49;6.20;;;5.40;;
54460;SDS011;69977;49.414;11.010;2024-01-06T07:55:15;6.43;;;5.47;;
54460;SDS011;69977;49.414;11.010;2024-01-06T07:57:42;8.37;;;5.80;;
54460;SDS011;69977;49.414;11.010;2024-01-06T08:00:09;8.97;;;5.70;;
54460;SDS011;69977;49.414;11.010;2024-01-06T08:02:39;6.03;;;5.27;;
54460;SDS011;69977;49.414;11.010;2024-01-06T08:05:05;7.00;;;6.03;;
54460;SDS011;69977;49.414;11.010;2024-01-06T08:07:32;6.33;;;5.77;;
54460;SDS011;69977;49.414;11.010;2024-01-06T08:09:58;7.17;;;5.70;;
54460;SDS011;69977;49.414;11.010;2024-01-06T08:12:24;7.57;;;5.43;;
54460;SDS011;69977;49.414;11.010;2024-01-06T08:14:50;7.50;;;6.03;;
54460;SDS011;69977;49.414;11.010;2024-01-06T08:17:17;6.50;;;5.70;;
54460;SDS011;69977;49.414;11.010;2024-01-06T08:19:43;6.33;;;5.70;;
54460;SDS011;69977;49.414;11.010;2024-01-06T08:22:11;9.00;;;6.67;;
54460;SDS011;69977;49.414;11.010;2024-01-06T08:24:37;6.13;;;5.57;;
54460;SDS011;69977;49.414;11.010;2024-01-06T08:27:03;6.73;;;5.73;;
54460;SDS011;69977;49.414;11.010;2024-01-06T08:29:30;5.70;;;5.20;;
54460;SDS011;69977;49.414;11.010;2024-01-06T08:31:56;7.87;;;6.10;;
54460;SDS011;69977;49.414;11.010;2024-01-06T08:34:22;6.87;;;5.97;;
54460;SDS011;69977;49.414;11.010;2024-01-06T08:36:48;6.73;;;5.57;;
54460;SDS011;69977;49.414;11.010;2024-01-06T08:39:14;7.50;;;5.67;;
54460;SDS011;69977;49.414;11.010;2024-01-06T08:41:40;6.30;;;5.70;;
54460;SDS011;69977;49.414;11.010;2024-01-06T08:44:06;8.60;;;6.07;;
54460;SDS011;69977;49.414;11.010;2024-01-06T08:46:32;7.00;;;5.70;;
54460;SDS011;69977;49.414;11.010;2024-01-06T08:48:58;10.70;;;6.13;;
54460;SDS011;69977;49.414;11.010;2024-01-06T08:51:25;8.47;;;5.70;;
54460;SDS011;69977;49.414;11.010;2024-01-06T08:53:51;7.90;;;5.77;;
54460;SDS011;69977;49.414;11.010;2024-01-06T08:56:18;7.30;;;5.77;;
54460;SDS011;69977;49.414;11.010;2024-01-06T08:58:45;6.20;;;5.60;;
54460;SDS011;69977;49.414;11.010;2024-01-06T09:01:12;8.43;;;5.57;;
54460;SDS011;69977;49.414;11.010;2024-01-06T09:03:38;8.13;;;5.83;;
54460;SDS011;69977;49.414;11.010;2024-01-06T09:06:04;6.37;;;5.50;;
54460;SDS011;69977;49.414;11.010;2024-01-06T09:08:30;7.10;;;6.20;;
54460;SDS011;69977;49.414;11.010;2024-01-06T09:10:56;7.07;;;5.17;;
54460;SDS011;69977;49.414;11.010;2024-01-06T09:13:23;6.83;;;5.63;;
54460;SDS011;69977;49.414;11.010;2024-01-06T09:15:50;7.03;;;6.23;;
54460;SDS011;69977;49.414;11.010;2024-01-06T09:18:16;5.73;;;5.23;;
54460;SDS011;69977;49.414;11.010;2024-01-06T09:20:42;7.10;;;6.30;;
54460;SDS011;69977;49.414;11.010;2024-01-06T09:23:08;8.60;;;6.30;;
54460;SDS011;69977;49.414;11.010;2024-01-06T09:25:35;6.27;;;5.67;;
54460;SDS011;69977;49.414;11.010;2024-01-06T09:28:02;9.67;;;6.10;;
54460;SDS011;69977;49.414;11.010;2024-01-06T09:30:27;6.63;;;5.90;;
54460;SDS011;69977;49.414;11.010;2024-01-06T09:32:53;8.63;;;6.33;;
54460;SDS011;69977;49.414;11.010;2024-01-06T09:35:19;8.63;;;6.17;;
54460;SDS011;69977;49.414;11.010;2024-01-06T09:37:45;6.37;;;5.40;;
54460;SDS011;69977;49.414;11.010;2024-01-06T09:40:11;8.33;;;5.57;;
54460;SDS011;69977;49.414;11.010;2024-01-06T09:42:41;7.23;;;5.27;;
54460;SDS011;69977;49.414;11.010;2024-01-06T09:45:07;8.00;;;6.13;;
54460;SDS011;69977;49.414;11.010;2024-01-06T09:47:34;7.93;;;6.40;;
54460;SDS011;69977;49.414;11.010;2024-01-06T09:50:01;7.70;;;5.77;;
54460;SDS011;69977;49.414;11.010;2024-01-06T09:52:29;6.93;;;5.53;;
54460;SDS011;69977;49.414;11.010;2024-01-06T09:54:58;7.27;;;6.03;;
54460;SDS011;69977;49.414;11.010;2024-01-06T09:57:27;9.23;;;6.10;;
54460;SDS011;69977;49.414;11.010;2024-01-06T09:59:53;7.53;;;5.80;;
54460;SDS011;69977;49.414;11.010;2024-01-06T10:02:21;8.10;;;6.20;;
54460;SDS011;69977;49.414;11.010;2024-01-06T10:04:48;8.10;;;5.87;;
54460;SDS011;69977;49.414;11.010;2024-01-06T10:07:14;6.40;;;5.73;;
54460;SDS011;69977;49.414;11.010;2024-01-06T10:09:40;9.70;;;5.90;;
54460;SDS011;69977;49.414;11.010;2024-01-06T10:12:08;9.10;;;5.50;;
54460;SDS011;69977;49.414;11.010;2024-01-06T10:14:34;6.30;;;5.43;;
54460;SDS011;69977;49.414;11.010;2024-01-06T10:17:01;7.60;;;5.43;;
54460;SDS011;69977;49.414;11.010;2024-01-06T10:19:27;8.63;;;6.07;;
54460;SDS011;69977;49.414;11.010;2024-01-06T10:21:53;6.73;;;5.07;;
54460;SDS011;69977;49.414;11.010;2024-01-06T10:24:20;7.60;;;6.27;;
54460;SDS011;69977;49.414;11.010;2024-01-06T10:26:46;7.13;;;5.07;;
54460;SDS011;69977;49.414;11.010;2024-01-06T10:29:15;9.00;;;5.00;;
54460;SDS011;69977;49.414;11.010;2024-01-06T10:31:41;8.40;;;5.60;;
54460;SDS011;69977;49.414;11.010;2024-01-06T10:34:07;7.53;;;5.20;;
54460;SDS011;69977;49.414;11.010;2024-01-06T10:36:33;6.00;;;5.40;;
54460;SDS011;69977;49.414;11.010;2024-01-06T10:38:59;7.50;;;6.33;;
54460;SDS011;69977;49.414;11.010;2024-01-06T10:41:26;6.83;;;5.30;;
54460;SDS011;69977;49.414;11.010;2024-01-06T10:43:55;6.63;;;5.33;;
54460;SDS011;69977;49.414;11.010;2024-01-06T10:46:23;6.17;;;5.33;;
54460;SDS011;69977;49.414;11.010;2024-01-06T10:48:50;7.87;;;5.30;;
54460;SDS011;69977;49.414;11.010;2024-01-06T10:51:17;7.47;;;5.23;;
54460;SDS011;69977;49.414;11.010;2024-01-06T10:53:44;5.93;;;5.20;;
54460;SDS011;69977;49.414;11.010;2024-01-06T10:56:10;5.63;;;5.03;;
54460;SDS011;69977;49.414;11.010;2024-01-06T10:58:36;6.43;;;4.60;;
54460;SDS011;69977;49.414;11.010;2024-01-06T11:01:08;6.63;;;4.87;;
54460;SDS011;69977;49.414;11.010;2024-01-06T11:03:36;5.37;;;4.87;;
54460;SDS011;69977;49.414;11.010;2024-01-06T11:06:06;6.07;;;4.90;;
54460;SDS011;69977;49.414;11.010;2024-01-06T11:08:36;8.40;;;4.93;;
54460;SDS011;69977;49.414;11.010;2024-01-06T11:11:15;8.57;;;4.70;;
54460;SDS011;69977;49.414;11.010;2024-01-06T11:13:45;6.60;;;4.57;;
54460;SDS011;69977;49.414;11.010;2024-01-06T11:16:34;6.10;;;4.50;;
54460;SDS011;69977;49.414;11.010;2024-01-06T11:19:02;4.53;;;3.90;;
54460;SDS011;69977;49.414;11.010;2024-01-06T11:21:48;4.27;;;3.03;;
54460;SDS011;69977;49.414;11.010;2024-01-06T11:26:53;9.20;;;3.50;;
54460;SDS011;69977;49.414;11.010;2024-01-06T11:29:21;4.43;;;3.53;;
54460;SDS011;69977;49.414;11.010;2024-01-06T11:34:41;2.97;;;2.70;;
54460;SDS011;69977;49.414;11.010;2024-01-06T11:37:07;3.03;;;2.73;;
54460;SDS011;69977;49.414;11.010;2024-01-06T11:39:34;4.03;;;3.33;;
54460;SDS011;69977;49.414;11.010;2024-01-06T11:42:03;7.67;;;3.73;;
54460;SDS011;69977;49.414;11.010;2024-01-06T11:44:29;4.57;;;3.10;;
54460;SDS011;69977;49.414;11.010;2024-01-06T11:46:59;3.20;;;3.00;;
54460;SDS011;69977;49.414;11.010;2024-01-06T11:49:29;6.20;;;3.00;;
54460;SDS011;69977;49.414;11.010;2024-01-06T11:51:56;3.47;;;3.13;;
54460;SDS011;69977;49.414;11.010;2024-01-06T11:54:22;5.20;;;3.40;;
54460;SDS011;69977;49.414;11.010;2024-01-06T11:56:48;9.90;;;3.30;;
54460;SDS011;69977;49.414;11.010;2024-01-06T11:59:14;3.67;;;3.10;;
54460;SDS011;69977;49.414;11.010;2024-01-06T12:01:40;4.33;;;3.40;;
54460;SDS011;69977;49.414;11.010;2024-01-06T12:04:06;3.90;;;3.50;;
54460;SDS011;69977;49.414;11.010;2024-01-06T12:06:32;5.10;;;2.93;;
54460;SDS011;69977;49.414;11.010;2024-01-06T12:09:08;3.83;;;3.33;;
54460;SDS011;69977;49.414;11.010;2024-01-06T12:11:40;3.60;;;3.23;;
54460;SDS011;69977;49.414;11.010;2024-01-06T12:14:07;3.47;;;3.17;;
54460;SDS011;69977;49.414;11.010;2024-01-06T12:16:32;3.50;;;3.20;;
54460;SDS011;69977;49.414;11.010;2024-01-06T12:18:59;3.43;;;3.13;;
54460;SDS011;69977;49.414;11.010;2024-01-06T12:21:29;4.13;;;3.40;;
54460;SDS011;69977;49.414;11.010;2024-01-06T12:24:12;4.33;;;3.10;;
54460;SDS011;69977;49.414;11.010;2024-01-06T12:26:48;5.47;;;2.90;;
54460;SDS011;69977;49.414;11.010;2024-01-06T12:29:14;3.27;;;2.97;;
54460;SDS011;69977;49.414;11.010;2024-01-06T12:31:42;3.67;;;3.37;;
54460;SDS011;69977;49.414;11.010;2024-01-06T12:34:09;3.53;;;3.23;;
54460;SDS011;69977;49.414;11.010;2024-01-06T12:36:39;5.47;;;3.53;;
54460;SDS011;69977;49.414;11.010;2024-01-06T12:39:06;5.67;;;3.13;;
54460;SDS011;69977;49.414;11.010;2024-01-06T12:41:40;3.07;;;2.77;;
54460;SDS011;69977;49.414;11.010;2024-01-06T12:44:06;3.53;;;3.23;;
54460;SDS011;69977;49.414;11.010;2024-01-06T12:46:32;5.27;;;3.80;;
54460;SDS011;69977;49.414;11.010;2024-01-06T12:48:58;4.07;;;3.43;;
54460;SDS011;69977;49.414;11.010;2024-01-06T12:51:24;5.03;;;3.60;;
54460;SDS011;69977;49.414;11.010;2024-01-06T12:53:50;6.47;;;3.40;;
54460;SDS011;69977;49.414;11.010;2024-01-06T12:56:16;3.93;;;3.27;;
54460;SDS011;69977;49.414;11.010;2024-01-06T12:58:42;6.07;;;4.13;;
54460;SDS011;69977;49.414;11.010;2024-01-06T13:01:11;11.57;;;10.37;;
54460;SDS011;69977;49.414;11.010;2024-01-06T13:03:37;7.03;;;5.03;;
54460;SDS011;69977;49.414;11.010;2024-01-06T13:06:04;13.57;;;11.57;;
54460;SDS011;69977;49.414;11.010;2024-01-06T13:08:30;5.37;;;4.87;;
54460;SDS011;69977;49.414;11.010;2024-01-06T13:10:56;8.03;;;4.90;;
54460;SDS011;69977;49.414;11.010;2024-01-06T13:13:23;4.70;;;3.73;;
54460;SDS011;69977;49.414;11.010;2024-01-06T13:15:49;4.23;;;3.83;;
54460;SDS011;69977;49.414;11.010;2024-01-06T13:18:15;5.43;;;3.97;;
54460;SDS011;69977;49.414;11.010;2024-01-06T13:20:44;4.43;;;3.60;;
54460;SDS011;69977;49.414;11.010;2024-01-06T13:23:10;3.67;;;3.30;;
54460;SDS011;69977;49.414;11.010;2024-01-06T13:25:38;3.60;;;3.10;;
54460;SDS011;69977;49.414;11.010;2024-01-06T13:28:05;6.13;;;3.10;;
54460;SDS011;69977;49.414;11.010;2024-01-06T13:30:31;3.50;;;3.20;;
54460;SDS011;69977;49.414;11.010;2024-01-06T13:32:58;4.27;;;3.30;;
54460;SDS011;69977;49.414;11.010;2024-01-06T13:35:24;4.07;;;3.27;;
54460;SDS011;69977;49.414;11.010;2024-01-06T13:37:53;5.20;;;3.70;;
54460;SDS011;69977;49.414;11.010;2024-01-06T13:40:21;6.23;;;3.40;;
54460;SDS011;69977;49.414;11.010;2024-01-06T13:42:48;3.83;;;3.17;;
54460;SDS011;69977;49.414;11.010;2024-01-06T13:45:15;5.70;;;3.60;;
54460;SDS011;69977;49.414;11.010;2024-01-06T13:47:42;4.23;;;3.03;;
54460;SDS011;69977;49.414;11.010;2024-01-06T13:50:13;4.97;;;3.80;;
54460;SDS011;69977;49.414;11.010;2024-01-06T13:52:42;4.53;;;3.57;;
54460;SDS011;69977;49.414;11.010;2024-01-06T13:55:08;4.00;;;3.43;;
54460;SDS011;69977;49.414;11.010;2024-01-06T13:57:35;4.17;;;3.53;;
54460;SDS011;69977;49.414;11.010;2024-01-06T14:00:02;4.47;;;3.10;;
54460;SDS011;69977;49.414;11.010;2024-01-06T14:02:37;3.60;;;3.20;;
54460;SDS011;69977;49.414;11.010;2024-01-06T14:05:04;4.50;;;3.53;;
54460;SDS011;69977;49.414;11.010;2024-01-06T14:07:33;4.43;;;3.33;;
54460;SDS011;69977;49.414;11.010;2024-01-06T14:10:04;4.80;;;4.07;;
54460;SDS011;69977;49.414;11.010;2024-01-06T14:12:31;3.23;;;3.03;;
54460;SDS011;69977;49.414;11.010;2024-01-06T14:14:57;4.17;;;3.40;;
54460;SDS011;69977;49.414;11.010;2024-01-06T14:17:23;4.23;;;3.50;;
54460;SDS011;69977;49.414;11.010;2024-01-06T14:19:50;5.03;;;3.03;;
54460;SDS011;69977;49.414;11.010;2024-01-06T14:22:15;3.47;;;3.20;;
54460;SDS011;69977;49.414;11.010;2024-01-06T14:24:42;3.60;;;3.30;;
54460;SDS011;69977;49.414;11.010;2024-01-06T14:27:08;3.80;;;3.50;;
54460;SDS011;69977;49.414;11.010;2024-01-06T14:29:34;6.17;;;3.43;;
54460;SDS011;69977;49.414;11.010;2024-01-06T14:32:01;3.67;;;3.37;;
54460;SDS011;69977;49.414;11.010;2024-01-06T14:34:27;3.63;;;3.33;;
54460;SDS011;69977;49.414;11.010;2024-01-06T14:36:53;6.20;;;4.40;;